Time;durP1;ratioP1;P1;durP2;ratioP2;P2;SDS_P1;SDS_P2;PMS_P1;PMS_P2;Temp;Humidity;BMP_temperature;BMP_pressure;BME280_temperature;BME280_humidity;BME280_pressure;Samples;Min_cycle;Max_cycle;Signal;HPM_P1;HPM_P2
2022/03/05 00:01:02;;;;;;;37.70;13.77;;;;;;;2.97;53.70;101572.44;5031774;28;20057;-64
2022/03/05 00:03:29;;;;;;;41.17;14.85;;;;;;;2.95;53.56;101575.16;5032665;28;20136;-64
2022/03/05 00:05:55;;;;;;;39.90;12.93;;;;;;;3.01;54.09;101574.81;5051559;28;20041;-64
2022/03/05 00:08:22;;;;;;;43.42;13.38;;;;;;;2.97;54.56;101575.91;5049871;28;20434;-64
2022/03/05 00:10:49;;;;;;;43.45;14.13;;;;;;;2.87;54.60;101580.81;5049218;28;20037;-64
2022/03/05 00:13:16;;;;;;;46.67;14.65;;;;;;;2.85;55.07;101572.16;5028060;28;20449;-65
2022/03/05 00:15:43;;;;;;;50.00;15.13;;;;;;;2.87;54.91;101583.44;5034643;28;20042;-64
2022/03/05 00:18:11;;;;;;;46.65;14.05;;;;;;;2.75;55.92;101578.00;5035795;28;20502;-64
2022/03/05 00:20:37;;;;;;;45.85;15.02;;;;;;;2.59;55.60;101581.44;5035799;28;20042;-64
2022/03/05 00:23:05;;;;;;;44.33;14.20;;;;;;;2.52;55.98;101584.47;5035483;28;20116;-65
2022/03/05 00:25:32;;;;;;;48.05;15.38;;;;;;;2.60;55.54;101584.91;5034427;28;20498;-64
2022/03/05 00:27:59;;;;;;;43.30;15.70;;;;;;;2.56;55.91;101584.22;5035386;28;20053;-65
2022/03/05 00:30:26;;;;;;;42.83;14.27;;;;;;;2.46;56.33;101586.50;5035226;28;20056;-64
2022/03/05 00:32:53;;;;;;;43.90;15.05;;;;;;;2.49;56.88;101591.56;5035501;28;20037;-65
2022/03/05 00:35:19;;;;;;;43.97;15.15;;;;;;;2.49;56.72;101586.34;5034235;28;20495;-64
2022/03/05 00:37:46;;;;;;;43.33;15.88;;;;;;;2.59;57.24;101589.31;5017829;28;20417;-64
2022/03/05 00:40:13;;;;;;;40.95;14.32;;;;;;;2.43;56.97;101588.44;5034119;28;20049;-65
2022/03/05 00:42:40;;;;;;;41.15;13.90;;;;;;;2.34;57.49;101586.28;5035115;28;20038;-65
2022/03/05 00:45:08;;;;;;;51.88;15.63;;;;;;;2.31;57.77;101584.69;5035065;28;20501;-65
2022/03/05 00:47:36;;;;;;;48.15;15.35;;;;;;;2.30;57.57;101578.59;5035524;28;20046;-65
2022/03/05 00:50:05;;;;;;;47.55;14.90;;;;;;;2.34;58.00;101581.88;5035503;28;20050;-65
2022/03/05 00:52:34;;;;;;;46.53;15.52;;;;;;;2.28;57.64;101585.69;5035044;28;20041;-64
2022/03/05 00:55:01;;;;;;;46.42;14.68;;;;;;;2.19;58.81;101587.94;5033900;28;20540;-63
2022/03/05 00:57:28;;;;;;;53.88;16.27;;;;;;;2.25;57.56;101585.00;5034235;28;20060;-63
2022/03/05 00:59:54;;;;;;;51.55;16.23;;;;;;;2.15;58.35;101587.25;5034606;28;20390;-63
2022/03/05 01:02:21;;;;;;;50.17;16.10;;;;;;;2.17;58.58;101584.56;5016879;28;20099;-65
2022/03/05 01:04:48;;;;;;;46.90;15.00;;;;;;;2.20;58.33;101581.75;5033908;28;20438;-65
2022/03/05 01:07:15;;;;;;;48.00;15.93;;;;;;;2.25;58.59;101579.75;5033490;28;20048;-65
2022/03/05 01:09:41;;;;;;;50.15;16.60;;;;;;;2.19;58.93;101574.84;5017496;28;20052;-64
2022/03/05 01:12:09;;;;;;;51.10;16.05;;;;;;;2.11;58.96;101578.72;5033268;28;20042;-65
2022/03/05 01:14:36;;;;;;;57.58;16.75;;;;;;;2.10;58.93;101581.41;5034663;28;20077;-65
2022/03/05 01:17:03;;;;;;;49.38;16.98;;;;;;;1.86;60.01;101573.03;5034549;28;20038;-65
2022/03/05 01:19:30;;;;;;;54.75;16.85;;;;;;;1.86;59.76;101571.25;5033595;28;20128;-64
2022/03/05 01:21:56;;;;;;;51.58;16.45;;;;;;;1.90;59.56;101564.09;5033234;28;20387;-65
2022/03/05 01:24:25;;;;;;;58.65;17.50;;;;;;;1.90;59.66;101562.31;5017540;28;20041;-64
2022/03/05 01:26:52;;;;;;;54.83;17.17;;;;;;;1.91;60.12;101566.63;5032290;28;20048;-64
2022/03/05 01:29:19;;;;;;;63.90;18.77;;;;;;;1.82;60.67;101568.84;5034236;28;20041;-65
2022/03/05 01:31:46;;;;;;;57.92;18.02;;;;;;;1.90;60.30;101559.69;5033138;28;20037;-65
2022/03/05 01:34:13;;;;;;;59.60;16.95;;;;;;;1.88;60.18;101560.72;5016997;28;20136;-65
2022/03/05 01:36:41;;;;;;;54.33;16.50;;;;;;;1.80;61.02;101563.72;5034286;28;20049;-64
2022/03/05 01:39:08;;;;;;;60.05;17.90;;;;;;;1.81;60.95;101565.41;5034355;28;20045;-65
2022/03/05 01:41:34;;;;;;;53.17;17.48;;;;;;;1.70;60.39;101559.88;5034064;28;20042;-64
2022/03/05 01:44:01;;;;;;;58.53;17.52;;;;;;;1.66;61.37;101564.41;5032420;28;20397;-65
2022/03/05 01:46:30;;;;;;;74.03;19.00;;;;;;;1.71;61.23;101559.78;5034094;28;20038;-65
2022/03/05 01:48:57;;;;;;;58.15;18.42;;;;;;;1.80;61.45;101555.00;5033983;28;20057;-64
2022/03/05 01:51:25;;;;;;;60.70;18.23;;;;;;;1.69;60.84;101556.41;5032965;28;20045;-64
2022/03/05 01:53:51;;;;;;;58.22;16.80;;;;;;;1.65;61.03;101554.84;5034010;28;20052;-65
2022/03/05 01:56:19;;;;;;;58.60;18.40;;;;;;;1.67;60.79;101554.78;5032866;28;20405;-65
2022/03/05 01:58:46;;;;;;;58.42;16.95;;;;;;;1.57;61.28;101557.00;5033586;28;20042;-65
2022/03/05 02:01:13;;;;;;;60.22;17.77;;;;;;;1.36;61.91;101553.66;5033625;28;20513;-65
2022/03/05 02:03:41;;;;;;;58.10;17.95;;;;;;;1.34;61.83;101553.75;5032342;28;20052;-65
2022/03/05 02:06:07;;;;;;;56.75;17.55;;;;;;;1.46;62.12;101554.94;5034159;28;20103;-65
2022/03/05 02:08:34;;;;;;;61.33;18.20;;;;;;;1.33;62.32;101562.53;5032655;28;20080;-65
2022/03/05 02:11:01;;;;;;;55.13;16.75;;;;;;;1.39;62.80;101560.53;5033866;28;20080;-65
2022/03/05 02:13:28;;;;;;;64.53;18.52;;;;;;;1.34;63.17;101555.50;5033435;28;20493;-64
2022/03/05 02:15:56;;;;;;;56.45;17.40;;;;;;;1.27;63.21;101548.88;5034462;28;20096;-65
2022/03/05 02:18:23;;;;;;;61.33;18.35;;;;;;;1.28;63.54;101547.97;5033406;28;20493;-65
2022/03/05 02:20:51;;;;;;;66.10;18.67;;;;;;;1.27;62.68;101554.97;5033737;28;20428;-65
2022/03/05 02:23:18;;;;;;;59.22;17.45;;;;;;;1.36;62.91;101545.81;4999789;28;20046;-65
2022/03/05 02:25:53;;;;;;;64.85;19.23;;;;;;;1.29;62.92;101549.66;5016312;28;20073;-65
2022/03/05 02:28:22;;;;;;;65.57;18.08;;;;;;;1.32;63.48;101546.91;5033061;28;20124;-65
2022/03/05 02:30:49;;;;;;;58.00;17.50;;;;;;;1.23;63.86;101544.75;5033170;28;20045;-65
2022/03/05 02:33:16;;;;;;;57.67;17.52;;;;;;;1.21;62.88;101538.75;5032299;28;20045;-65
2022/03/05 02:35:44;;;;;;;61.20;18.05;;;;;;;1.18;63.61;101542.34;5032260;28;20049;-65
2022/03/05 02:38:13;;;;;;;64.45;18.15;;;;;;;1.22;63.09;101550.88;5031932;28;20038;-65
2022/03/05 02:40:41;;;;;;;62.42;18.33;;;;;;;1.18;63.29;101550.19;5033091;28;20449;-65
2022/03/05 02:43:08;;;;;;;60.10;17.50;;;;;;;1.02;63.54;101546.59;5032872;28;20045;-64
2022/03/05 02:45:35;;;;;;;65.43;18.92;;;;;;;1.02;63.95;101544.84;5032968;28;20120;-65
2022/03/05 02:48:06;;;;;;;60.50;16.85;;;;;;;1.04;64.22;101544.78;4999520;28;20132;-64
2022/03/05 02:50:34;;;;;;;60.28;16.98;;;;;;;1.18;63.88;101544.94;5033062;28;20041;-65
2022/03/05 02:53:00;;;;;;;68.63;18.25;;;;;;;1.01;64.15;101539.69;5033013;28;20072;-64
2022/03/05 02:55:27;;;;;;;60.33;17.58;;;;;;;1.01;64.90;101537.91;5031764;28;20091;-65
2022/03/05 02:57:54;;;;;;;66.00;17.30;;;;;;;1.00;64.49;101538.88;5033182;28;20041;-65
2022/03/05 03:00:21;;;;;;;61.33;17.67;;;;;;;0.83;64.66;101536.19;5031342;28;20072;-64
2022/03/05 03:02:49;;;;;;;62.42;17.70;;;;;;;0.95;64.34;101539.06;5032581;28;20118;-65
2022/03/05 03:05:16;;;;;;;58.83;18.00;;;;;;;0.92;64.22;101530.53;5033065;28;20133;-64
2022/03/05 03:07:44;;;;;;;52.40;17.38;;;;;;;0.84;64.75;101524.81;5015305;28;20132;-65
2022/03/05 03:10:12;;;;;;;57.50;17.02;;;;;;;0.89;65.12;101535.88;5032927;28;20045;-65
2022/03/05 03:12:40;;;;;;;63.35;18.05;;;;;;;0.86;64.45;101528.22;5031612;28;20045;-64
2022/03/05 03:15:08;;;;;;;61.67;17.48;;;;;;;0.81;65.04;101531.03;5031501;28;20041;-65
2022/03/05 03:17:44;;;;;;;66.57;16.67;;;;;;;0.84;64.61;101532.66;5031714;28;20049;-65
2022/03/05 03:20:12;;;;;;;57.47;17.10;;;;;;;0.84;64.84;101532.66;5032970;28;20056;-64
2022/03/05 03:22:40;;;;;;;60.78;17.17;;;;;;;0.80;65.62;101534.56;5015175;28;20045;-65
2022/03/05 03:25:08;;;;;;;55.95;17.85;;;;;;;0.87;64.82;101533.34;5031839;28;20053;-65
2022/03/05 03:27:37;;;;;;;65.88;18.98;;;;;;;0.72;65.59;101534.06;5032582;28;20069;-65
2022/03/05 03:30:06;;;;;;;56.03;17.13;;;;;;;0.75;65.39;101539.16;5031335;28;20046;-65
2022/03/05 03:32:33;;;;;;;63.63;17.45;;;;;;;0.84;65.54;101528.28;5031313;28;20064;-64
2022/03/05 03:34:59;;;;;;;52.28;16.17;;;;;;;0.83;64.84;101536.19;5015382;28;20053;-65
2022/03/05 03:37:29;;;;;;;56.63;17.35;;;;;;;0.88;65.02;101537.66;5031450;28;20884;-64
2022/03/05 03:39:56;;;;;;;67.93;18.05;;;;;;;0.89;65.42;101538.50;5022528;28;20053;-65
2022/03/05 03:42:25;;;;;;;60.00;17.55;;;;;;;0.87;65.41;101537.72;5042210;28;20041;-65
2022/03/05 03:44:53;;;;;;;64.50;16.58;;;;;;;0.85;65.25;101544.78;5032298;28;20439;-65
2022/03/05 03:47:20;;;;;;;55.03;16.30;;;;;;;0.77;65.41;101548.59;5015096;28;20048;-64
2022/03/05 03:49:48;;;;;;;46.38;16.08;;;;;;;0.81;64.63;101545.84;5017642;28;20530;-64
2022/03/05 03:52:15;;;;;;;54.78;16.98;;;;;;;0.80;65.69;101544.16;5035131;28;20405;-64
2022/03/05 03:54:45;;;;;;;58.00;16.80;;;;;;;0.85;65.14;101550.00;5035132;28;20053;-65
2022/03/05 03:57:12;;;;;;;58.65;16.27;;;;;;;0.65;65.53;101549.16;5035088;28;20448;-64
2022/03/05 03:59:39;;;;;;;57.05;16.20;;;;;;;0.74;65.33;101547.91;5035885;28;20501;-65
2022/03/05 04:02:08;;;;;;;56.03;16.90;;;;;;;0.70;65.03;101547.19;5034541;28;20053;-65
2022/03/05 04:04:35;;;;;;;56.22;16.17;;;;;;;0.71;65.15;101542.81;5035907;28;20045;-65
2022/03/05 04:09:49;;;;;;;55.90;17.00;;;;;;;0.73;65.63;101544.44;5034940;28;20076;-64
2022/03/05 04:12:15;;;;;;;55.53;16.92;;;;;;;0.76;65.22;101539.09;5035867;28;20046;-65
2022/03/05 04:14:42;;;;;;;52.65;16.50;;;;;;;0.76;65.12;101546.06;5018047;28;20052;-65
2022/03/05 04:17:09;;;;;;;60.83;16.85;;;;;;;0.76;65.06;101538.22;5034774;28;20048;-65
2022/03/05 04:19:36;;;;;;;50.15;15.18;;;;;;;0.72;65.93;101547.13;5034767;28;20056;-65
2022/03/05 04:22:02;;;;;;;51.20;16.33;;;;;;;0.51;66.07;101543.72;5034989;28;20045;-65
2022/03/05 04:24:29;;;;;;;53.85;16.50;;;;;;;0.49;66.08;101550.78;5037587;28;20481;-64
2022/03/05 04:26:56;;;;;;;50.22;16.27;;;;;;;0.61;65.61;101550.22;5036110;28;20041;-65
2022/03/05 04:29:30;;;;;;;48.22;16.02;;;;;;;0.64;65.55;101557.94;5034387;28;20049;-64
2022/03/05 04:31:56;;;;;;;50.92;16.52;;;;;;;0.64;65.89;101563.16;5034199;28;20046;-65
2022/03/05 04:34:23;;;;;;;59.38;16.73;;;;;;;0.69;65.53;101563.78;5035618;28;20041;-65
2022/03/05 04:36:50;;;;;;;55.53;16.40;;;;;;;0.57;65.72;101569.56;5034352;28;20124;-65
2022/03/05 04:39:16;;;;;;;49.40;16.10;;;;;;;0.62;66.31;101565.00;5035401;28;20072;-65
2022/03/05 04:41:43;;;;;;;52.88;16.15;;;;;;;0.69;65.97;101562.94;5034080;28;20099;-64
2022/03/05 04:44:10;;;;;;;53.33;16.08;;;;;;;0.62;65.60;101556.28;5035125;28;20560;-66
2022/03/05 04:46:37;;;;;;;51.88;16.02;;;;;;;0.64;66.07;101559.66;5034994;28;20060;-65
2022/03/05 04:49:04;;;;;;;52.85;16.67;;;;;;;0.63;66.34;101561.44;5034259;28;20271;-65
2022/03/05 04:51:32;;;;;;;52.13;16.08;;;;;;;0.59;66.12;101561.66;5017860;28;20042;-64
2022/03/05 04:53:59;;;;;;;49.53;16.27;;;;;;;0.62;66.40;101556.28;5035179;28;20076;-64
2022/03/05 04:56:25;;;;;;;47.60;16.10;;;;;;;0.57;66.39;101562.56;5017765;28;20561;-65
2022/03/05 04:58:52;;;;;;;54.00;15.43;;;;;;;0.56;66.14;101562.63;5033849;28;20084;-65
2022/03/05 05:01:19;;;;;;;51.58;16.67;;;;;;;0.60;66.08;101563.34;5034564;28;20045;-65
2022/03/05 05:03:46;;;;;;;53.05;16.15;;;;;;;0.68;65.73;101562.09;5033996;28;20099;-65
2022/03/05 05:06:13;;;;;;;49.75;16.10;;;;;;;0.67;66.05;101568.22;5001327;28;20046;-65
2022/03/05 05:08:40;;;;;;;54.95;15.95;;;;;;;0.61;65.84;101571.13;5033565;28;20038;-65
2022/03/05 05:11:07;;;;;;;53.03;15.75;;;;;;;0.59;65.88;101572.97;5033537;28;20038;-65
2022/03/05 05:13:34;;;;;;;51.47;15.55;;;;;;;0.61;65.34;101572.88;5028191;28;20067;-65
2022/03/05 05:16:01;;;;;;;60.80;17.77;;;;;;;0.61;65.39;101573.72;5033517;28;20124;-65
2022/03/05 05:18:27;;;;;;;53.00;15.68;;;;;;;0.57;65.29;101575.63;5000963;28;20137;-65
2022/03/05 05:20:54;;;;;;;52.72;16.23;;;;;;;0.62;65.59;101574.56;5033606;28;20050;-65
2022/03/05 05:23:22;;;;;;;55.92;16.08;;;;;;;0.54;66.23;101580.16;5033053;28;20076;-64
2022/03/05 05:25:49;;;;;;;47.65;14.15;;;;;;;0.69;65.59;101581.22;5033470;28;20049;-64
2022/03/05 05:28:16;;;;;;;60.67;15.98;;;;;;;0.50;66.21;101576.81;5033030;28;20211;-65
2022/03/05 05:30:48;;;;;;;51.58;15.48;;;;;;;0.46;66.20;101582.25;5034317;28;20125;-64
2022/03/05 05:33:15;;;;;;;56.40;16.73;;;;;;;0.56;66.00;101583.53;5033097;28;20099;-65
2022/03/05 05:35:42;;;;;;;49.25;15.85;;;;;;;0.48;66.70;101583.88;5033332;28;20117;-64
2022/03/05 05:38:08;;;;;;;45.17;15.60;;;;;;;0.56;65.88;101591.38;5050073;28;20049;-64
2022/03/05 05:40:35;;;;;;;53.33;15.70;;;;;;;0.57;66.23;101587.84;5036445;28;20037;-64
2022/03/05 05:43:02;;;;;;;52.00;16.25;;;;;;;0.57;65.66;101583.47;5002624;28;20081;-65
2022/03/05 05:45:29;;;;;;;54.70;16.25;;;;;;;0.48;65.99;101590.88;5012865;28;20046;-64
2022/03/05 05:47:58;;;;;;;54.92;17.10;;;;;;;0.46;65.90;101596.16;5013333;28;20554;-64
2022/03/05 05:50:25;;;;;;;49.65;15.32;;;;;;;0.47;66.50;101581.34;5029273;28;20049;-64
2022/03/05 05:52:51;;;;;;;48.22;15.88;;;;;;;0.42;66.43;101578.06;5014166;28;20066;-65
2022/03/05 05:55:18;;;;;;;54.50;16.50;;;;;;;0.40;66.52;101590.34;4997057;28;20502;-66
2022/03/05 05:57:45;;;;;;;48.55;15.13;;;;;;;0.35;66.34;101593.19;5013386;28;20502;-64
2022/03/05 06:00:12;;;;;;;50.08;16.00;;;;;;;0.42;67.08;101589.38;5024510;28;20045;-64
2022/03/05 06:02:40;;;;;;;51.55;16.33;;;;;;;0.44;66.20;101589.28;5032459;28;20050;-64
2022/03/05 06:05:07;;;;;;;53.45;15.02;;;;;;;0.28;66.73;101589.97;5008257;28;20041;-65
2022/03/05 06:07:35;;;;;;;57.75;14.48;;;;;;;0.42;66.51;101591.13;5033627;28;20045;-64
2022/03/05 06:10:02;;;;;;;48.05;15.75;;;;;;;0.33;66.35;101593.25;5032160;28;20042;-65
2022/03/05 06:12:28;;;;;;;45.38;14.63;;;;;;;0.35;66.59;101596.63;5033068;28;20069;-65
2022/03/05 06:14:55;;;;;;;44.85;14.55;;;;;;;0.27;66.76;101597.88;5033342;28;20064;-64
2022/03/05 06:17:22;;;;;;;45.35;14.93;;;;;;;0.27;66.96;101601.31;5032414;28;20099;-65
2022/03/05 06:19:48;;;;;;;47.63;15.45;;;;;;;0.37;66.79;101599.19;5016276;28;20049;-64
2022/03/05 06:22:15;;;;;;;45.30;15.15;;;;;;;0.34;66.81;101589.69;5032391;28;20068;-64
2022/03/05 06:24:42;;;;;;;48.45;14.18;;;;;;;0.42;66.40;101596.34;5032321;28;20045;-65
2022/03/05 06:27:09;;;;;;;43.72;14.18;;;;;;;0.48;66.25;101596.94;5033296;28;20056;-65
2022/03/05 06:29:36;;;;;;;42.75;15.05;;;;;;;0.51;66.11;101595.94;5032008;28;20042;-64
2022/03/05 06:32:08;;;;;;;45.72;14.50;;;;;;;0.47;66.23;101597.84;5013737;28;20124;-64
2022/03/05 06:34:35;;;;;;;54.97;16.35;;;;;;;0.40;66.29;101592.97;5015938;28;20038;-64
2022/03/05 06:37:01;;;;;;;44.65;15.77;;;;;;;0.58;65.93;101592.13;5032139;28;20124;-64
2022/03/05 06:39:29;;;;;;;49.55;16.25;;;;;;;0.46;66.40;101595.31;5033353;28;20050;-64
2022/03/05 06:41:57;;;;;;;53.97;15.48;;;;;;;0.46;66.36;101597.94;5032869;28;20091;-64
2022/03/05 06:44:24;;;;;;;53.70;16.15;;;;;;;0.44;65.94;101599.72;5032996;28;20482;-64
2022/03/05 06:46:50;;;;;;;45.10;14.75;;;;;;;0.53;66.06;101596.75;5031856;28;20049;-64
2022/03/05 06:49:17;;;;;;;47.42;15.38;;;;;;;0.53;66.28;101592.34;5015621;28;20050;-65
2022/03/05 06:51:44;;;;;;;48.83;15.50;;;;;;;0.53;65.77;101601.97;5031961;28;20041;-64
2022/03/05 06:54:10;;;;;;;47.30;15.18;;;;;;;0.64;66.01;101604.06;5033000;28;20403;-64
2022/03/05 06:56:37;;;;;;;47.05;15.00;;;;;;;0.53;66.10;101604.56;5031979;28;20065;-64
2022/03/05 06:59:04;;;;;;;43.85;14.73;;;;;;;0.63;65.86;101610.22;5031563;28;20051;-65
2022/03/05 07:01:34;;;;;;;45.35;14.70;;;;;;;0.64;65.85;101609.28;5031354;28;20048;-65
2022/03/05 07:04:00;;;;;;;47.70;15.40;;;;;;;0.73;65.96;101617.59;5031729;28;20171;-64
2022/03/05 07:06:27;;;;;;;52.28;15.77;;;;;;;0.77;65.86;101621.75;5032091;28;20053;-64
2022/03/05 07:08:54;;;;;;;44.05;15.38;;;;;;;0.78;65.89;101622.59;5032790;28;20387;-64
2022/03/05 07:11:21;;;;;;;48.33;15.45;;;;;;;0.94;65.22;101623.56;5031772;28;20549;-64
2022/03/05 07:13:48;;;;;;;57.88;17.50;;;;;;;0.87;65.68;101618.72;5031788;28;20069;-64
2022/03/05 07:16:14;;;;;;;48.95;15.75;;;;;;;0.98;65.18;101626.06;5032618;28;20042;-64
2022/03/05 07:18:41;;;;;;;48.97;15.05;;;;;;;1.14;63.92;101621.81;5032754;28;20051;-64
2022/03/05 07:21:08;;;;;;;54.20;15.90;;;;;;;1.00;64.25;101616.38;5015534;28;20049;-64
2022/03/05 07:23:35;;;;;;;47.67;16.90;;;;;;;1.03;65.12;101622.31;5033256;28;20041;-65
2022/03/05 07:26:01;;;;;;;46.40;15.38;;;;;;;1.14;64.68;101624.44;5036612;28;20069;-64
2022/03/05 07:28:28;;;;;;;53.00;16.55;;;;;;;1.23;64.02;101625.78;5035484;28;20111;-64
2022/03/05 07:30:55;;;;;;;47.33;15.75;;;;;;;1.25;64.47;101629.16;5018958;28;20383;-64
2022/03/05 07:33:26;;;;;;;45.17;15.82;;;;;;;1.34;63.59;101619.09;5035556;28;20037;-64
2022/03/05 07:35:54;;;;;;;47.55;16.85;;;;;;;1.32;64.55;101630.56;5022332;28;20045;-64
2022/03/05 07:38:21;;;;;;;48.67;15.85;;;;;;;1.38;63.92;101632.88;5055343;28;20041;-64
2022/03/05 07:40:47;;;;;;;43.55;15.75;;;;;;;1.48;63.31;101630.69;5055285;28;20045;-64
2022/03/05 07:43:14;;;;;;;50.22;16.80;;;;;;;1.52;63.24;101634.84;5040343;28;20049;-64
2022/03/05 07:45:41;;;;;;;49.13;16.63;;;;;;;1.66;62.86;101626.34;5034660;28;20053;-65
2022/03/05 07:48:08;;;;;;;49.75;15.57;;;;;;;1.68;63.33;101629.72;5018754;28;20498;-65
2022/03/05 07:50:35;;;;;;;45.30;15.30;;;;;;;1.63;63.07;101640.41;5036388;28;20045;-64
2022/03/05 07:53:02;;;;;;;50.05;17.02;;;;;;;1.66;63.24;101645.50;5002402;28;20051;-65
2022/03/05 07:55:29;;;;;;;47.63;15.52;;;;;;;1.79;62.31;101637.06;5035506;28;20052;-64
2022/03/05 07:57:55;;;;;;;47.28;16.60;;;;;;;1.89;62.29;101643.50;5035023;28;20038;-65
2022/03/05 08:00:22;;;;;;;51.17;16.15;;;;;;;1.95;62.22;101647.59;5034382;28;20041;-65
2022/03/05 08:02:50;;;;;;;50.35;16.70;;;;;;;2.11;62.14;101644.16;5034526;28;20390;-64
2022/03/05 08:05:18;;;;;;;48.17;16.42;;;;;;;2.19;62.14;101641.13;5035939;28;20124;-65
2022/03/05 08:07:44;;;;;;;49.22;16.92;;;;;;;2.27;62.10;101646.84;5018188;28;20107;-64
2022/03/05 08:10:11;;;;;;;47.97;17.65;;;;;;;2.42;61.18;101646.94;5006459;28;20179;-65
2022/03/05 08:12:38;;;;;;;46.67;16.80;;;;;;;2.55;61.04;101655.03;5034603;28;20046;-65
2022/03/05 08:15:06;;;;;;;48.20;15.93;;;;;;;2.69;59.61;101648.16;5035699;28;20034;-65
2022/03/05 08:17:32;;;;;;;52.22;16.48;;;;;;;2.58;59.97;101654.88;5034495;28;20041;-64
2022/03/05 08:19:59;;;;;;;56.47;17.63;;;;;;;2.66;59.87;101656.16;5034636;28;20045;-64
2022/03/05 08:22:28;;;;;;;50.67;17.17;;;;;;;2.93;58.89;101666.13;5034545;28;20060;-65
2022/03/05 08:24:55;;;;;;;51.65;17.13;;;;;;;2.83;59.21;101663.13;5035640;28;20045;-64
2022/03/05 08:27:22;;;;;;;50.55;16.25;;;;;;;2.94;59.02;101669.59;5035319;28;20124;-64
2022/03/05 08:29:48;;;;;;;46.85;16.02;;;;;;;3.02;59.05;101664.75;5001517;28;20088;-65
2022/03/05 08:32:15;;;;;;;48.45;16.52;;;;;;;2.93;58.41;101668.75;5017443;28;20525;-64
2022/03/05 08:34:46;;;;;;;54.63;17.50;;;;;;;2.96;58.73;101665.94;5033731;28;20398;-63
2022/03/05 08:37:14;;;;;;;49.80;17.27;;;;;;;3.10;58.71;101662.59;5035441;28;20103;-63
2022/03/05 08:39:41;;;;;;;53.85;17.63;;;;;;;3.14;58.63;101658.03;5034129;28;20053;-64
2022/03/05 08:42:08;;;;;;;53.03;17.48;;;;;;;3.53;57.56;101664.63;5034020;28;20095;-64
2022/03/05 08:44:35;;;;;;;53.25;17.65;;;;;;;3.54;57.09;101669.78;5017825;28;20038;-64
2022/03/05 08:47:02;;;;;;;50.72;18.65;;;;;;;3.64;57.60;101665.72;5019941;28;20049;-64
2022/03/05 08:49:29;;;;;;;56.75;18.25;;;;;;;3.52;57.51;101658.53;5029583;28;20042;-64
2022/03/05 08:51:56;;;;;;;47.72;17.45;;;;;;;3.72;57.43;101661.81;5033832;28;20383;-64
2022/03/05 08:54:25;;;;;;;56.72;19.00;;;;;;;3.78;57.14;101653.59;5035041;28;20042;-64
2022/03/05 08:56:52;;;;;;;51.72;18.67;;;;;;;3.82;56.71;101655.09;5033931;28;20045;-64
2022/03/05 08:59:19;;;;;;;51.25;17.83;;;;;;;4.03;55.91;101653.03;5034568;28;20065;-64
2022/03/05 09:01:46;;;;;;;53.60;18.42;;;;;;;3.95;56.08;101650.84;5033347;28;20050;-64
2022/03/05 09:04:13;;;;;;;57.72;18.85;;;;;;;3.98;56.52;101647.19;5033678;28;20410;-64
2022/03/05 09:06:40;;;;;;;51.70;18.45;;;;;;;4.08;56.38;101645.72;5017253;28;20038;-64
2022/03/05 09:09:08;;;;;;;51.97;19.27;;;;;;;3.98;55.78;101653.31;5033757;28;20520;-65
2022/03/05 09:11:37;;;;;;;54.70;19.05;;;;;;;4.09;55.33;101644.78;5034220;28;20068;-64
2022/03/05 09:14:05;;;;;;;56.67;18.13;;;;;;;3.99;55.28;101644.47;5034723;28;20498;-64
2022/03/05 09:16:32;;;;;;;64.35;20.15;;;;;;;3.83;55.73;101652.38;5033065;28;20049;-64
2022/03/05 09:18:59;;;;;;;54.75;20.13;;;;;;;3.95;55.97;101652.63;5034824;28;20038;-65
2022/03/05 09:21:25;;;;;;;48.38;19.02;;;;;;;3.96;55.63;101655.16;5033273;28;20060;-65
2022/03/05 09:23:52;;;;;;;55.25;19.52;;;;;;;4.15;55.16;101648.84;5034498;28;20087;-65
2022/03/05 09:26:19;;;;;;;51.72;18.45;;;;;;;4.25;55.61;101649.97;5034378;28;20042;-65
2022/03/05 09:28:45;;;;;;;58.75;19.00;;;;;;;4.46;54.91;101642.59;5033176;28;20042;-64
2022/03/05 09:31:12;;;;;;;60.17;18.88;;;;;;;4.51;54.09;101644.94;5037427;28;20072;-64
2022/03/05 09:33:39;;;;;;;61.97;18.55;;;;;;;4.32;54.67;101638.16;5053509;28;20406;-65
2022/03/05 09:36:09;;;;;;;60.95;20.40;;;;;;;4.45;54.20;101643.53;5054094;28;20102;-64
2022/03/05 09:38:36;;;;;;;62.08;19.63;;;;;;;4.60;54.92;101645.25;5054134;28;20055;-64
2022/03/05 09:41:05;;;;;;;60.63;19.95;;;;;;;4.55;54.59;101649.94;5019901;28;20124;-65
2022/03/05 09:43:32;;;;;;;59.78;19.83;;;;;;;4.94;52.86;101647.56;5053043;28;20075;-64
2022/03/05 09:46:00;;;;;;;57.70;20.23;;;;;;;5.18;52.89;101651.31;5053160;28;20095;-64
2022/03/05 09:48:28;;;;;;;63.58;20.25;;;;;;;5.49;51.93;101646.69;5052516;28;20073;-65
2022/03/05 09:50:55;;;;;;;55.45;19.48;;;;;;;5.93;51.12;101656.13;5054228;28;20049;-64
2022/03/05 09:53:27;;;;;;;53.65;20.25;;;;;;;6.77;47.51;101651.38;5052120;28;20447;-65
2022/03/05 09:55:53;;;;;;;;;;;;;;;7.59;45.75;101643.78;5054396;28;20040;-64
2022/03/05 09:58:39;;;;;;;56.92;19.52;;;;;;;9.06;42.20;101646.75;5053652;28;19921;-65
2022/03/05 10:01:06;;;;;;;56.08;19.95;;;;;;;9.29;42.45;101652.00;5034688;28;20065;-64
2022/03/05 10:03:55;;;;;;;50.50;19.70;;;;;;;10.73;38.74;101650.59;5032092;28;20049;-65
2022/03/05 10:06:27;;;;;;;55.58;20.75;;;;;;;12.02;35.50;101656.03;5033737;28;20034;-65
2022/03/05 10:08:55;;;;;;;54.08;21.17;;;;;;;12.87;33.88;101644.47;5032455;28;20539;-65
2022/03/05 10:11:24;;;;;;;44.83;20.38;;;;;;;13.80;32.34;101656.81;5032595;28;20084;-65
2022/03/05 10:13:51;;;;;;;43.40;19.23;;;;;;;14.08;30.75;101665.59;5016239;28;20453;-66
2022/03/05 10:16:33;;;;;;;43.65;19.23;;;;;;;14.45;30.06;101658.34;5032101;28;20493;-64
2022/03/05 10:19:18;;;;;;;41.30;19.55;;;;;;;13.62;31.18;101662.16;5016128;28;20052;-64
2022/03/05 10:22:03;;;;;;;45.10;19.33;;;;;;;13.76;30.60;101653.63;5027010;28;20046;-64
2022/03/05 10:24:33;;;;;;;43.75;19.58;;;;;;;14.93;29.53;101651.59;5032239;28;20073;-64
2022/03/05 10:27:02;;;;;;;43.78;19.63;;;;;;;14.77;29.33;101647.88;5032096;28;20072;-64
2022/03/05 10:29:34;;;;;;;41.45;19.27;;;;;;;15.14;28.97;101652.00;5018059;28;20497;-64
2022/03/05 10:32:05;;;;;;;46.45;20.42;;;;;;;15.76;27.82;101647.34;5047051;28;20457;-64
2022/03/05 10:34:54;;;;;;;47.53;21.23;;;;;;;16.48;27.18;101645.59;5033151;28;20056;-64
2022/03/05 10:37:23;;;;;;;;;;;;;;;16.91;26.14;101647.19;5033693;28;20515;-63
2022/03/05 10:39:51;;;;;;;46.22;20.45;;;;;;;17.50;25.50;101644.00;5015713;28;19995;-64
2022/03/05 10:42:25;;;;;;;42.75;20.73;;;;;;;18.10;24.31;101653.13;5006741;28;20467;-64
2022/03/05 10:45:03;;;;;;;42.72;20.90;;;;;;;17.48;24.64;101649.53;5032753;28;20125;-64
2022/03/05 10:47:40;;;;;;;46.05;21.63;;;;;;;16.94;26.27;101649.53;5033079;28;20072;-64
2022/03/05 10:50:22;;;;;;;45.03;21.02;;;;;;;17.92;24.20;101646.25;5031872;28;20076;-63
2022/03/05 10:52:52;;;;;;;46.30;21.48;;;;;;;18.27;24.59;101640.41;5033052;28;20037;-64
2022/03/05 10:55:22;;;;;;;48.22;22.77;;;;;;;17.77;25.77;101637.25;5032997;28;20047;-64
2022/03/05 10:58:13;;;;;;;51.67;22.65;;;;;;;17.75;24.88;101637.44;4999115;28;20401;-64
2022/03/05 11:00:41;;;;;;;47.73;22.67;;;;;;;18.12;24.82;101637.66;5031451;28;20045;-64
2022/03/05 11:03:08;;;;;;;45.17;23.02;;;;;;;18.35;23.55;101632.25;5031421;28;20049;-64
2022/03/05 11:05:36;;;;;;;48.55;22.50;;;;;;;17.75;24.88;101632.06;5032009;28;20120;-64
2022/03/05 11:08:05;;;;;;;43.65;22.65;;;;;;;19.31;23.31;101638.47;5022528;28;20041;-64
2022/03/05 11:10:32;;;;;;;40.03;21.42;;;;;;;19.52;22.59;101639.56;5019284;28;20038;-62
2022/03/05 11:13:02;;;;;;;45.38;21.25;;;;;;;19.96;21.12;101635.84;5015268;28;20045;-63
2022/03/05 11:15:31;;;;;;;43.80;21.33;;;;;;;20.10;21.11;101643.00;5015356;28;20096;-64
2022/03/05 11:17:59;;;;;;;42.55;21.48;;;;;;;20.08;21.41;101636.13;4999097;28;20087;-64
2022/03/05 11:20:26;;;;;;;40.80;20.88;;;;;;;20.00;21.71;101634.41;5031607;28;20049;-63
2022/03/05 11:22:55;;;;;;;46.55;21.80;;;;;;;18.72;22.47;101633.16;5015001;28;20095;-63